Time;durP1;ratioP1;P1;durP2;ratioP2;P2;SDS_P1;SDS_P2;PMS_P1;PMS_P2;Temp;Humidity;BMP_temperature;BMP_pressure;BME280_temperature;BME280_humidity;BME280_pressure;Samples;Min_cycle;Max_cycle;Signal;HPM_P1;HPM_P2
2022/10/07 00:02:06;;;;;;;11.27;5.87;;;10.70;1.00;;;;;;5018194;28;21013;-82
2022/10/07 00:04:33;;;;;;;7.90;5.70;;;10.60;1.00;;;;;;5018350;28;20455;-82
2022/10/07 00:07:02;;;;;;;10.50;7.30;;;10.60;1.00;;;;;;5018448;28;20483;-82
2022/10/07 00:09:28;;;;;;;9.77;7.00;;;10.40;1.00;;;;;;5021245;28;20462;-82
2022/10/07 00:11:55;;;;;;;10.20;6.00;;;10.50;1.00;;;;;;5023700;28;20454;-82
2022/10/07 00:14:22;;;;;;;13.00;6.07;;;10.40;99.90;;;;;;5022559;28;20447;-82
2022/10/07 00:16:48;;;;;;;12.83;8.03;;;10.30;1.00;;;;;;5019000;28;20444;-83
2022/10/07 00:19:15;;;;;;;7.47;6.73;;;10.40;99.90;;;;;;5018098;28;20426;-82
2022/10/07 00:21:42;;;;;;;8.40;5.77;;;10.50;1.00;;;;;;5022236;28;20518;-82
2022/10/07 00:24:10;;;;;;;9.57;7.30;;;10.40;99.90;;;;;;5023230;28;20457;-82
2022/10/07 00:26:38;;;;;;;13.70;7.27;;;10.30;1.00;;;;;;5021955;28;20453;-82
2022/10/07 00:29:05;;;;;;;10.50;5.97;;;10.30;1.00;;;;;;5018294;28;20422;-82
2022/10/07 00:31:35;;;;;;;11.13;8.40;;;10.20;99.90;;;;;;5017498;28;20450;-82
2022/10/07 00:34:02;;;;;;;15.20;8.60;;;10.20;1.00;;;;;;5017628;28;20452;-82
2022/10/07 00:36:32;;;;;;;12.33;7.77;;;10.20;99.90;;;;;;5017549;28;20418;-82
2022/10/07 00:39:00;;;;;;;9.97;6.77;;;10.10;99.90;;;;;;5017439;28;20450;-82
2022/10/07 00:41:32;;;;;;;14.03;7.60;;;10.10;99.90;;;;;;5017659;28;20457;-82
2022/10/07 00:43:59;;;;;;;11.40;6.63;;;10.10;99.90;;;;;;5017589;28;20441;-82
2022/10/07 00:46:31;;;;;;;13.63;7.57;;;10.00;76.90;;;;;;5017191;28;20453;-82
2022/10/07 00:49:01;;;;;;;10.63;6.80;;;9.90;1.00;;;;;;5017740;28;20482;-82
2022/10/07 00:51:30;;;;;;;13.90;6.73;;;9.90;1.00;;;;;;5017198;28;20446;-82
2022/10/07 00:53:57;;;;;;;13.10;7.70;;;9.90;99.90;;;;;;5017033;28;20454;-82
2022/10/07 00:56:28;;;;;;;15.33;6.00;;;9.80;1.00;;;;;;5016859;28;20558;-83
2022/10/07 00:58:58;;;;;;;9.63;6.40;;;9.70;1.00;;;;;;5016637;28;20463;-83
2022/10/07 01:01:26;;;;;;;15.23;7.10;;;9.70;99.90;;;;;;5016512;28;20463;-82
2022/10/07 01:03:54;;;;;;;8.47;6.90;;;9.70;99.90;;;;;;5017049;28;20941;-81
2022/10/07 01:06:21;;;;;;;8.43;6.83;;;9.80;59.00;;;;;;5017703;28;20429;-82
2022/10/07 01:08:48;;;;;;;12.37;6.03;;;9.70;99.90;;;;;;5019483;28;20446;-82
2022/10/07 01:11:30;;;;;;;6.80;6.10;;;9.70;99.90;;;;;;5025051;28;20469;-81
2022/10/07 01:14:06;;;;;;;6.47;5.83;;;9.70;99.90;;;;;;5025465;28;20432;-81
2022/10/07 01:16:42;;;;;;;8.47;5.20;;;9.60;99.90;;;;;;5024834;28;20427;-81
2022/10/07 01:19:27;;;;;;;9.37;5.90;;;9.70;99.90;;;;;;5023622;28;20455;-81
2022/10/07 01:22:07;;;;;;;6.80;4.80;;;9.60;99.90;;;;;;5025315;28;20472;-81
2022/10/07 01:24:41;;;;;;;7.70;5.37;;;9.50;1.00;;;;;;5029488;28;20406;-82
2022/10/07 01:27:13;;;;;;;10.97;5.60;;;9.50;1.00;;;;;;5029066;28;20438;-82
2022/10/07 01:29:46;;;;;;;9.03;5.20;;;9.20;1.00;;;;;;5028458;28;20425;-83
2022/10/07 01:32:20;;;;;;;6.60;5.23;;;9.50;1.00;;;;;;5028591;28;20424;-82
2022/10/07 01:34:50;;;;;;;8.83;6.30;;;9.60;1.00;;;;;;5029123;28;20410;-82
2022/10/07 01:37:18;;;;;;;7.30;5.90;;;9.40;1.00;;;;;;5023171;28;20447;-83
2022/10/07 01:39:50;;;;;;;7.53;6.30;;;9.40;1.00;;;;;;5020161;28;20484;-83
2022/10/07 01:42:20;;;;;;;11.20;5.60;;;9.50;1.00;;;;;;5018999;28;20442;-83
2022/10/07 01:44:50;;;;;;;9.20;6.33;;;9.50;99.90;;;;;;5019583;28;20472;-83
2022/10/07 01:47:17;;;;;;;10.90;5.83;;;9.50;17.00;;;;;;5020992;28;20451;-83
2022/10/07 01:49:44;;;;;;;6.50;4.97;;;9.50;4.30;;;;;;5019614;28;20475;-82
2022/10/07 01:52:33;;;;;;;9.13;6.70;;;9.60;1.00;;;;;;5019458;28;20448;-82
2022/10/07 01:55:15;;;;;;;7.53;5.77;;;9.50;1.00;;;;;;5018340;28;20438;-82
2022/10/07 01:57:52;;;;;;;10.10;5.33;;;9.40;1.00;;;;;;5019862;28;20429;-82
2022/10/07 02:00:19;;;;;;;9.63;5.70;;;9.40;1.00;;;;;;5020194;28;20466;-82
2022/10/07 02:03:03;;;;;;;6.43;5.70;;;9.10;33.70;;;;;;5019841;28;20488;-82
2022/10/07 02:05:40;;;;;;;11.30;5.10;;;9.20;1.00;;;;;;5020048;28;20519;-82
2022/10/07 02:08:17;;;;;;;7.70;5.60;;;9.20;17.30;;;;;;5019817;28;20436;-82
2022/10/07 02:11:03;;;;;;;7.90;5.53;;;9.30;1.00;;;;;;5020771;28;20467;-82
2022/10/07 02:13:36;;;;;;;10.03;5.20;;;9.20;1.00;;;;;;5026316;28;20435;-82
2022/10/07 02:16:11;;;;;;;5.60;5.10;;;9.20;1.00;;;;;;5029787;28;20415;-82
2022/10/07 02:18:42;;;;;;;7.20;6.00;;;9.20;1.00;;;;;;5027671;28;20438;-82
2022/10/07 02:21:10;;;;;;;9.80;6.30;;;9.10;55.20;;;;;;5026475;28;20562;-82
2022/10/07 02:23:40;;;;;;;7.80;5.63;;;9.20;13.50;;;;;;5021939;28;20462;-83
2022/10/07 02:26:08;;;;;;;9.77;4.93;;;9.20;1.00;;;;;;5020617;28;20849;-83
2022/10/07 02:28:39;;;;;;;6.97;4.80;;;9.20;1.00;;;;;;5018494;28;20484;-82
2022/10/07 02:31:09;;;;;;;7.70;5.13;;;9.30;1.00;;;;;;5018786;28;20542;-82
2022/10/07 02:33:38;;;;;;;8.60;4.93;;;9.20;1.00;;;;;;5017812;28;20418;-82
2022/10/07 02:36:10;;;;;;;6.03;4.87;;;9.20;1.00;;;;;;5019214;28;20458;-83
2022/10/07 02:38:38;;;;;;;12.93;5.03;;;9.30;1.00;;;;;;5017929;28;20406;-82
2022/10/07 02:41:11;;;;;;;5.17;4.53;;;9.30;1.00;;;;;;5018267;28;20464;-82
2022/10/07 02:43:43;;;;;;;10.33;4.37;;;9.20;1.00;;;;;;5018452;28;20467;-81
2022/10/07 02:46:16;;;;;;;5.70;4.80;;;9.20;1.00;;;;;;5018317;28;20439;-81
2022/10/07 02:48:46;;;;;;;12.73;4.50;;;9.10;1.00;;;;;;5020100;28;20410;-82
2022/10/07 02:51:19;;;;;;;6.60;4.80;;;9.10;1.00;;;;;;5019442;28;20857;-82
2022/10/07 02:53:49;;;;;;;8.27;5.33;;;9.10;1.00;;;;;;5025754;28;20426;-82
2022/10/07 02:56:19;;;;;;;8.53;4.97;;;8.90;36.30;;;;;;5031408;28;20413;-82
2022/10/07 02:58:48;;;;;;;5.20;4.50;;;9.60;99.90;;;;;;5027768;28;20444;-82
2022/10/07 03:01:17;;;;;;;6.60;5.00;;;8.80;99.90;;;;;;5022560;28;20549;-82
2022/10/07 03:03:44;;;;;;;8.03;5.10;;;8.80;99.90;;;;;;5026263;28;20479;-82
2022/10/07 03:06:12;;;;;;;9.73;5.07;;;8.80;99.90;;;;;;5030904;28;20418;-82
2022/10/07 03:08:40;;;;;;;9.43;5.27;;;8.90;99.90;;;;;;5031157;28;20454;-81
2022/10/07 03:11:06;;;;;;;7.90;4.13;;;8.90;99.90;;;;;;5023593;28;20546;-81
2022/10/07 03:13:34;;;;;;;9.53;4.90;;;8.80;99.90;;;;;;5019163;28;20433;-82
2022/10/07 03:16:04;;;;;;;7.07;5.30;;;8.80;99.90;;;;;;5018309;28;20457;-82
2022/10/07 03:18:30;;;;;;;7.60;5.00;;;8.70;99.90;;;;;;5018575;28;20455;-81
2022/10/07 03:20:59;;;;;;;7.03;5.37;;;8.70;99.90;;;;;;5017313;28;20491;-82
2022/10/07 03:23:27;;;;;;;11.23;5.17;;;8.70;99.90;;;;;;5018438;28;20515;-83
2022/10/07 03:25:56;;;;;;;5.33;4.83;;;8.60;99.90;;;;;;5017929;28;20458;-82
2022/10/07 03:28:25;;;;;;;8.80;5.60;;;8.60;99.90;;;;;;5018024;28;20451;-81
2022/10/07 03:30:55;;;;;;;6.43;5.70;;;8.50;99.90;;;;;;5019015;28;20496;-82
2022/10/07 03:33:24;;;;;;;10.00;5.80;;;8.50;99.90;;;;;;5019161;28;20841;-82
2022/10/07 03:35:53;;;;;;;7.50;5.73;;;8.40;99.90;;;;;;5016915;28;21032;-81
2022/10/07 03:38:21;;;;;;;8.30;5.93;;;8.40;99.90;;;;;;5018736;28;20477;-82
2022/10/07 03:40:48;;;;;;;8.23;5.57;;;8.50;99.90;;;;;;5018726;28;20533;-82
2022/10/07 03:43:15;;;;;;;14.83;6.80;;;8.40;99.90;;;;;;5018191;28;20533;-82
2022/10/07 03:45:50;;;;;;;7.50;5.90;;;8.40;99.90;;;;;;5025783;28;20469;-81
2022/10/07 03:48:17;;;;;;;6.90;5.70;;;8.50;99.90;;;;;;5018390;28;20410;-81
2022/10/07 03:50:49;;;;;;;6.53;5.73;;;8.50;99.90;;;;;;5017765;28;20441;-81
2022/10/07 03:53:17;;;;;;;8.43;5.40;;;8.50;99.90;;;;;;5016966;28;20885;-81
2022/10/07 03:55:43;;;;;;;8.15;5.07;;;8.50;99.90;;;;;;5016365;28;20450;-81
2022/10/07 03:58:11;;;;;;;6.93;4.90;;;8.50;99.90;;;;;;5016929;28;20204;-82
2022/10/07 04:00:39;;;;;;;8.60;5.20;;;8.40;99.90;;;;;;5017649;28;20459;-81
2022/10/07 04:03:06;;;;;;;10.60;5.87;;;8.30;99.90;;;;;;5024699;28;20450;-81
2022/10/07 04:05:33;;;;;;;11.50;6.27;;;8.20;99.90;;;;;;5025541;28;20435;-81
2022/10/07 04:08:02;;;;;;;15.00;7.07;;;8.30;99.90;;;;;;5025581;28;20433;-81
2022/10/07 04:10:29;;;;;;;10.17;6.77;;;8.20;99.90;;;;;;5022075;28;20591;-81
2022/10/07 04:12:55;;;;;;;9.67;6.80;;;8.30;99.90;;;;;;5016819;28;20418;-81
2022/10/07 04:15:22;;;;;;;8.00;6.70;;;8.20;99.90;;;;;;5017332;28;20452;-81
2022/10/07 04:17:49;;;;;;;8.40;6.37;;;8.20;99.90;;;;;;5016988;28;20447;-82
2022/10/07 04:20:16;;;;;;;9.53;6.03;;;8.10;99.90;;;;;;5016140;28;20458;-82
2022/10/07 04:22:43;;;;;;;12.40;7.43;;;8.30;99.90;;;;;;5016761;28;20908;-81
2022/10/07 04:27:58;;;;;;;12.93;8.77;;;8.10;99.90;;;;;;5017106;28;20490;-83
2022/10/07 04:30:26;;;;;;;17.03;10.57;;;8.00;99.90;;;;;;5016214;28;20836;-82
2022/10/07 04:32:53;;;;;;;11.83;6.93;;;7.90;99.90;;;;;;5019741;28;20465;-82
2022/10/07 04:35:22;;;;;;;10.10;6.30;;;7.90;99.90;;;;;;5024381;28;20502;-81
2022/10/07 04:37:49;;;;;;;6.67;6.00;;;7.90;99.90;;;;;;5024591;28;20468;-81
2022/10/07 04:40:18;;;;;;;10.50;5.60;;;7.90;99.90;;;;;;5020875;28;20853;-82
2022/10/07 04:45:31;;;;;;;9.35;6.47;;;7.90;99.90;;;;;;5016500;28;20239;-81
2022/10/07 04:47:59;;;;;;;8.35;6.03;;;8.00;99.90;;;;;;5016232;28;20211;-82
2022/10/07 04:50:25;;;;;;;6.75;5.20;;;8.00;99.90;;;;;;5016734;28;20270;-81
2022/10/07 04:52:52;;;;;;;10.00;5.77;;;8.00;99.90;;;;;;5016778;28;20204;-82
2022/10/07 04:55:20;;;;;;;10.10;6.18;;;8.00;99.90;;;;;;5016701;28;20448;-81
2022/10/07 04:57:48;;;;;;;8.37;5.57;;;8.00;99.90;;;;;;5018281;28;20675;-81
2022/10/07 05:00:15;;;;;;;7.60;5.85;;;8.10;99.90;;;;;;5022270;28;20475;-82
2022/10/07 05:02:43;;;;;;;8.20;7.13;;;8.10;99.90;;;;;;5019797;28;20731;-81
2022/10/07 05:05:10;;;;;;;6.47;5.87;;;8.20;99.90;;;;;;5020835;28;20461;-81
2022/10/07 05:07:37;;;;;;;11.10;5.80;;;8.20;99.90;;;;;;5020530;28;20461;-81
2022/10/07 05:10:04;;;;;;;8.80;6.13;;;8.20;99.90;;;;;;5019688;28;20485;-81
2022/10/07 05:12:32;;;;;;;7.05;6.40;;;8.20;99.90;;;;;;5019988;28;20479;-81
2022/10/07 05:15:00;;;;;;;7.50;6.20;;;8.10;99.90;;;;;;5019678;28;20204;-81
2022/10/07 05:17:27;;;;;;;8.57;5.60;;;8.00;99.90;;;;;;5019962;28;20205;-81
2022/10/07 05:19:53;;;;;;;9.57;5.53;;;8.10;99.90;;;;;;5019763;28;20479;-81
2022/10/07 05:22:20;;;;;;;8.07;4.50;;;8.30;99.90;;;;;;5019811;28;20220;-81
2022/10/07 05:24:47;;;;;;;10.43;5.70;;;8.20;99.90;;;;;;5019808;28;20823;-81
2022/10/07 05:27:13;;;;;;;10.97;6.00;;;8.10;99.90;;;;;;5019324;28;20962;-81
2022/10/07 05:29:41;;;;;;;9.00;6.65;;;7.90;99.90;;;;;;5019809;28;20484;-84
2022/10/07 05:32:08;;;;;;;7.40;5.32;;;8.00;99.90;;;;;;5019535;28;20678;-82
2022/10/07 05:34:35;;;;;;;12.70;6.75;;;8.00;99.90;;;;;;5019472;28;20208;-82
2022/10/07 05:37:01;;;;;;;9.32;6.18;;;8.00;99.90;;;;;;5019282;28;20204;-81
2022/10/07 05:39:28;;;;;;;7.75;5.40;;;7.80;99.90;;;;;;5018738;28;20744;-81
2022/10/07 05:41:55;;;;;;;7.57;6.28;;;8.10;99.90;;;;;;5019478;28;20215;-81
2022/10/07 05:44:22;;;;;;;6.88;6.15;;;8.20;99.90;;;;;;5019233;28;20263;-81
2022/10/07 05:46:49;;;;;;;8.50;6.40;;;8.20;99.90;;;;;;5018442;28;20254;-80
2022/10/07 05:49:16;;;;;;;10.43;5.72;;;8.20;99.90;;;;;;5018890;28;20697;-80
2022/10/07 05:51:43;;;;;;;7.55;6.45;;;8.50;99.90;;;;;;5018558;28;20228;-81
2022/10/07 05:54:10;;;;;;;9.30;6.77;;;8.20;99.90;;;;;;5018576;28;20574;-80
2022/10/07 05:56:37;;;;;;;7.67;6.93;;;8.30;99.90;;;;;;5019067;28;20451;-80
2022/10/07 05:59:04;;;;;;;8.70;6.70;;;8.30;99.90;;;;;;5019429;28;20466;-80
2022/10/07 06:01:30;;;;;;;10.18;6.90;;;8.20;99.90;;;;;;5019434;28;20262;-81
2022/10/07 06:03:59;;;;;;;13.70;7.35;;;8.20;99.90;;;;;;5018992;28;20227;-81
2022/10/07 06:06:28;;;;;;;11.57;7.57;;;8.20;99.90;;;;;;5018719;28;20288;-82
2022/10/07 06:13:06;;;;;;;14.70;9.30;;;8.20;99.90;;;;;;5019328;28;20204;-82
2022/10/07 06:14:30;;;;;;;10.77;6.70;;;8.20;99.90;;;;;;5025360;28;20454;-82
2022/10/07 06:16:57;;;;;;;8.95;8.05;;;8.20;99.90;;;;;;5025901;28;20440;-82
2022/10/07 06:19:25;;;;;;;12.00;8.07;;;8.20;99.90;;;;;;5020180;28;20215;-81
2022/10/07 06:21:52;;;;;;;10.77;7.97;;;8.20;99.90;;;;;;5048052;22;20491;-88
2022/10/07 06:24:19;;;;;;;10.65;8.43;;;8.20;99.90;;;;;;5027704;28;20231;-88
2022/10/07 06:26:45;;;;;;;11.57;8.30;;;8.30;99.90;;;;;;5029964;28;20208;-87
2022/10/07 06:29:12;;;;;;;11.20;7.83;;;8.30;99.90;;;;;;5032141;28;20422;-87
2022/10/07 06:31:39;;;;;;;11.37;8.73;;;8.40;99.90;;;;;;5034132;28;20971;-87
2022/10/07 06:34:06;;;;;;;8.73;7.20;;;8.40;99.90;;;;;;5034644;28;20422;-87
2022/10/07 06:36:34;;;;;;;14.73;8.33;;;8.50;99.90;;;;;;5035114;28;20426;-87
2022/10/07 06:39:00;;;;;;;9.90;7.20;;;8.50;99.90;;;;;;5030656;28;20439;-87
2022/10/07 06:41:27;;;;;;;8.83;7.40;;;9.00;99.90;;;;;;5025963;28;20491;-86
2022/10/07 06:43:55;;;;;;;11.03;6.80;;;8.70;99.90;;;;;;5023321;28;20426;-86
2022/10/07 06:46:22;;;;;;;14.50;7.43;;;8.80;99.90;;;;;;5033456;28;20463;-86
2022/10/07 06:48:50;;;;;;;7.87;6.77;;;8.80;99.90;;;;;;5035580;28;20422;-86
2022/10/07 06:51:18;;;;;;;14.20;7.77;;;8.90;99.90;;;;;;5038665;28;20541;-86
2022/10/07 06:53:50;;;;;;;12.93;8.00;;;9.10;99.90;;;;;;5037170;28;20509;-86
2022/10/07 06:56:17;;;;;;;11.37;7.53;;;9.00;99.90;;;;;;5030491;28;20406;-87
2022/10/07 06:58:43;;;;;;;8.77;7.17;;;9.40;99.90;;;;;;5030388;28;20509;-87
2022/10/07 07:01:10;;;;;;;17.20;9.20;;;9.10;99.90;;;;;;5028171;28;20453;-88
2022/10/07 07:03:37;;;;;;;13.23;8.43;;;9.10;4.00;;;;;;5027972;28;20413;-87
2022/10/07 07:06:04;;;;;;;9.17;7.03;;;9.10;9.60;;;;;;5028372;28;20426;-89
2022/10/07 07:08:31;;;;;;;9.03;8.20;;;9.10;26.50;;;;;;5034114;28;20443;-87
2022/10/07 07:11:05;;;;;;;13.80;7.97;;;9.10;41.90;;;;;;5033723;28;20430;-86
2022/10/07 07:13:34;;;;;;;10.20;7.80;;;9.10;99.90;;;;;;5035291;28;20430;-88
2022/10/07 07:16:01;;;;;;;11.30;8.47;;;9.30;56.90;;;;;;5032821;28;20458;-88
2022/10/07 07:18:28;;;;;;;14.40;7.93;;;9.40;1.00;;;;;;5032185;28;20451;-88
2022/10/07 07:20:56;;;;;;;16.10;7.60;;;9.50;1.00;;;;;;5035422;28;20539;-87
2022/10/07 07:23:25;;;;;;;10.50;8.00;;;9.60;1.00;;;;;;5034170;28;20481;-88
2022/10/07 07:25:51;;;;;;;17.20;9.23;;;9.60;1.00;;;;;;5029527;28;20441;-87
2022/10/07 07:28:19;;;;;;;14.40;7.20;;;9.80;1.00;;;;;;5023844;28;20426;-87
2022/10/07 07:30:47;;;;;;;8.50;6.67;;;9.80;1.00;;;;;;5031223;28;20450;-86
2022/10/07 07:33:14;;;;;;;13.47;8.00;;;9.80;99.90;;;;;;5026916;28;20552;-87
2022/10/07 07:35:42;;;;;;;8.87;7.20;;;9.70;99.90;;;;;;5024983;28;20821;-88
2022/10/07 07:38:09;;;;;;;11.73;7.97;;;9.90;59.40;;;;;;5025487;28;20783;-88
2022/10/07 07:40:36;;;;;;;14.20;7.10;;;10.00;90.70;;;;;;5026244;28;20461;-88
2022/10/07 07:43:03;;;;;;;8.40;7.30;;;10.10;1.00;;;;;;5028343;28;20422;-88
2022/10/07 07:45:32;;;;;;;9.70;7.83;;;10.10;1.00;;;;;;5033836;28;20421;-86
2022/10/07 07:47:59;;;;;;;13.40;8.10;;;10.30;1.00;;;;;;5035291;28;20444;-87
2022/10/07 07:50:26;;;;;;;26.77;18.40;;;10.30;99.90;;;;;;5035606;28;20468;-88
2022/10/07 07:52:52;;;;;;;11.00;9.30;;;10.40;1.00;;;;;;5036238;28;20451;-88
2022/10/07 07:55:21;;;;;;;9.83;7.20;;;10.70;1.00;;;;;;5029441;28;20979;-87
2022/10/07 07:57:47;;;;;;;9.67;6.77;;;10.60;1.00;;;;;;5027868;28;20505;-87
2022/10/07 08:00:15;;;;;;;7.30;6.20;;;10.70;1.00;;;;;;5026972;28;20469;-86
2022/10/07 08:02:43;;;;;;;8.33;7.50;;;10.80;99.90;;;;;;5026919;28;20436;-86
2022/10/07 08:05:10;;;;;;;8.60;6.53;;;11.00;1.30;;;;;;5027758;28;20425;-87
2022/10/07 08:07:37;;;;;;;9.60;6.20;;;11.00;99.90;;;;;;5027463;28;20470;-87
2022/10/07 08:10:04;;;;;;;10.50;7.10;;;11.10;99.90;;;;;;5026494;28;20489;-87
2022/10/07 08:12:32;;;;;;;9.90;7.33;;;11.20;99.90;;;;;;5026096;28;20443;-86
2022/10/07 08:14:59;;;;;;;9.50;7.07;;;10.60;99.90;;;;;;5025779;28;20479;-87
2022/10/07 08:17:25;;;;;;;9.33;7.47;;;11.40;99.90;;;;;;5026767;28;20444;-87
2022/10/07 08:19:55;;;;;;;10.23;6.83;;;11.70;99.90;;;;;;5026152;28;20452;-87
2022/10/07 08:22:21;;;;;;;6.30;5.70;;;11.60;1.00;;;;;;5026845;28;20485;-85
2022/10/07 08:24:48;;;;;;;7.00;6.00;;;11.60;99.90;;;;;;5022159;28;20754;-86
2022/10/07 08:27:15;;;;;;;11.70;6.83;;;11.80;99.90;;;;;;5022115;28;20451;-85
2022/10/07 08:29:41;;;;;;;8.50;6.90;;;11.90;99.90;;;;;;5024267;28;20410;-84
2022/10/07 08:32:08;;;;;;;8.43;7.50;;;12.00;1.00;;;;;;5027960;28;20462;-88
2022/10/07 08:34:35;;;;;;;10.40;6.60;;;12.00;99.90;;;;;;5028587;28;20458;-86
2022/10/07 08:37:03;;;;;;;10.10;6.70;;;12.20;1.00;;;;;;5029780;28;20405;-86
2022/10/07 08:39:30;;;;;;;13.53;6.90;;;12.20;1.00;;;;;;5025910;28;20940;-87
2022/10/07 08:42:07;;;;;;;8.50;6.30;;;12.30;1.00;;;;;;5029225;28;20482;-86
2022/10/07 08:44:38;;;;;;;8.37;6.37;;;12.40;99.90;;;;;;5030981;28;20898;-86
2022/10/07 08:47:16;;;;;;;6.43;5.73;;;12.60;1.00;;;;;;5030666;28;20442;-87
2022/10/07 08:49:52;;;;;;;10.67;5.43;;;12.50;99.90;;;;;;5029223;28;20478;-87
2022/10/07 08:52:40;;;;;;;6.30;4.60;;;12.70;99.90;;;;;;5027750;28;20466;-86
2022/10/07 08:55:17;;;;;;;7.47;4.57;;;12.90;99.90;;;;;;5026559;28;20842;-87
2022/10/07 08:57:55;;;;;;;5.70;4.63;;;12.90;99.90;;;;;;5027323;28;20439;-87
2022/10/07 09:00:23;;;;;;;5.63;5.03;;;12.90;99.90;;;;;;5024450;28;20990;-87
2022/10/07 09:03:09;;;;;;;6.03;4.60;;;13.00;99.90;;;;;;5022692;28;20475;-88
2022/10/07 09:05:41;;;;;;;7.40;5.07;;;13.20;99.90;;;;;;5021424;28;20424;-85
2022/10/07 09:08:17;;;;;;;5.40;4.57;;;13.20;99.90;;;;;;5021561;28;20406;-87
2022/10/07 09:10:48;;;;;;;7.50;4.60;;;13.30;99.90;;;;;;5022581;28;20474;-87
2022/10/07 09:13:20;;;;;;;7.73;4.20;;;13.40;1.00;;;;;;5029840;28;20440;-86
2022/10/07 09:15:52;;;;;;;4.27;3.80;;;13.50;1.00;;;;;;5030896;28;20555;-87
2022/10/07 09:18:23;;;;;;;10.50;4.30;;;13.90;75.90;;;;;;5025896;28;20977;-88
2022/10/07 09:20:53;;;;;;;10.07;4.10;;;13.70;1.00;;;;;;5025466;28;20912;-87
2022/10/07 09:23:24;;;;;;;6.97;4.20;;;13.70;1.00;;;;;;5027768;28;20410;-88
2022/10/07 09:25:52;;;;;;;4.67;4.20;;;13.70;1.00;;;;;;5027726;28;20514;-88
2022/10/07 09:28:21;;;;;;;6.70;4.60;;;13.90;99.90;;;;;;5029096;28;20443;-87
2022/10/07 09:30:48;;;;;;;4.33;3.93;;;14.20;1.00;;;;;;5027195;28;20479;-88
2022/10/07 09:33:18;;;;;;;11.77;4.73;;;14.00;99.90;;;;;;5027367;28;20447;-88
2022/10/07 09:35:52;;;;;;;10.20;4.57;;;13.90;99.90;;;;;;5025809;28;20953;-88
2022/10/07 09:38:37;;;;;;;5.80;5.00;;;14.00;99.90;;;;;;5024318;28;20438;-87
2022/10/07 09:41:18;;;;;;;8.67;4.93;;;14.10;1.00;;;;;;5025015;28;20471;-87
2022/10/07 09:44:21;;;;;;;6.93;3.90;;;14.50;1.00;;;;;;5025966;28;20487;-87
2022/10/07 09:46:49;;;;;;;9.30;4.97;;;14.20;99.90;;;;;;5027393;28;20821;-86
2022/10/07 09:49:35;;;;;;;7.43;4.20;;;14.40;1.00;;;;;;5023860;28;20486;-86
2022/10/07 09:52:04;;;;;;;5.70;4.77;;;14.50;99.90;;;;;;5021105;28;20471;-87
2022/10/07 09:54:34;;;;;;;5.00;3.47;;;14.40;99.90;;;;;;5028904;28;20541;-87
2022/10/07 09:57:02;;;;;;;10.03;5.00;;;14.60;1.00;;;;;;5029644;28;20550;-87
2022/10/07 09:59:31;;;;;;;17.23;5.43;;;14.40;99.90;;;;;;5028165;28;20483;-87
2022/10/07 10:01:59;;;;;;;10.07;4.70;;;14.40;99.90;;;;;;5027336;28;21195;-86
2022/10/07 10:04:31;;;;;;;6.53;4.23;;;14.60;1.00;;;;;;5027029;28;20853;-87
2022/10/07 10:07:03;;;;;;;10.30;5.13;;;14.60;1.00;;;;;;5027186;28;20510;-87
2022/10/07 10:09:33;;;;;;;6.73;4.67;;;14.70;99.90;;;;;;5027516;28;20406;-87
2022/10/07 10:12:11;;;;;;;7.07;4.57;;;14.70;99.90;;;;;;5025529;28;20446;-87
2022/10/07 10:14:47;;;;;;;11.80;4.37;;;14.80;99.90;;;;;;5025982;28;20503;-87
2022/10/07 10:17:27;;;;;;;6.50;4.63;;;14.80;99.90;;;;;;5026552;28;20477;-87
2022/10/07 10:19:54;;;;;;;3.97;3.50;;;14.90;99.90;;;;;;5026343;28;20410;-87
2022/10/07 10:22:26;;;;;;;6.60;3.80;;;15.00;99.90;;;;;;5026955;28;20504;-88
2022/10/07 10:27:49;;;;;;;5.20;3.63;;;15.10;99.90;;;;;;5023456;28;20408;-87
2022/10/07 10:30:20;;;;;;;5.23;4.00;;;15.20;99.90;;;;;;5026184;28;20477;-86
2022/10/07 10:33:09;;;;;;;6.03;3.73;;;15.20;99.90;;;;;;5025441;28;20447;-85
2022/10/07 10:35:41;;;;;;;5.43;3.47;;;15.20;1.00;;;;;;5024598;28;20472;-86
2022/10/07 10:38:26;;;;;;;4.80;3.03;;;15.40;47.50;;;;;;5031491;28;20430;-86
2022/10/07 10:41:02;;;;;;;7.93;4.30;;;15.20;99.90;;;;;;5038859;28;20447;-87
2022/10/07 10:43:35;;;;;;;6.20;3.93;;;15.50;1.00;;;;;;5030601;28;20444;-85
2022/10/07 10:46:17;;;;;;;10.33;3.13;;;15.50;14.20;;;;;;5020981;28;20456;-87
2022/10/07 10:48:48;;;;;;;12.83;3.50;;;15.60;1.00;;;;;;5026943;28;20419;-88
2022/10/07 10:51:30;;;;;;;3.57;2.63;;;15.70;1.00;;;;;;5023340;28;20893;-87
2022/10/07 10:54:10;;;;;;;3.30;2.70;;;15.00;1.00;;;;;;5020349;28;20820;-87
2022/10/07 10:56:43;;;;;;;6.00;3.70;;;15.80;35.00;;;;;;5021139;28;20475;-87
2022/10/07 10:59:23;;;;;;;6.27;4.30;;;15.90;99.90;;;;;;5021454;28;20431;-87
2022/10/07 11:01:57;;;;;;;4.60;3.00;;;15.90;1.00;;;;;;5022464;28;20464;-87
2022/10/07 11:04:42;;;;;;;7.97;3.30;;;16.00;1.00;;;;;;5023607;28;20436;-87
2022/10/07 11:07:23;;;;;;;6.50;3.40;;;16.00;1.00;;;;;;5023967;28;20440;-87
2022/10/07 11:09:56;;;;;;;6.83;3.37;;;16.00;64.70;;;;;;5024545;28;20460;-87
2022/10/07 11:12:28;;;;;;;6.20;3.60;;;16.80;1.00;;;;;;5024230;28;20436;-87
2022/10/07 11:15:00;;;;;;;4.97;3.50;;;16.20;1.00;;;;;;5025809;28;20467;-86
2022/10/07 11:17:30;;;;;;;7.40;3.13;;;16.20;1.00;;;;;;5025278;28;20458;-86
2022/10/07 11:20:07;;;;;;;7.93;3.77;;;16.00;99.90;;;;;;5031241;28;20435;-87
2022/10/07 11:22:39;;;;;;;7.33;3.57;;;16.30;1.00;;;;;;5032620;28;20428;-88
2022/10/07 11:25:27;;;;;;;3.50;2.63;;;16.50;1.00;;;;;;5026321;28;20430;-86
2022/10/07 11:28:01;;;;;;;3.70;2.90;;;16.30;1.00;;;;;;5026139;28;20434;-88
2022/10/07 11:30:35;;;;;;;6.10;4.20;;;16.20;99.90;;;;;;5025610;28;20466;-89
2022/10/07 11:33:06;;;;;;;10.73;5.40;;;16.40;1.00;;;;;;5027636;28;20428;-88
2022/10/07 11:35:36;;;;;;;8.00;4.53;;;16.50;1.00;;;;;;5025862;28;20535;-89
2022/10/07 11:38:16;;;;;;;7.30;4.50;;;16.50;1.00;;;;;;5025147;28;20806;-87
2022/10/07 11:40:47;;;;;;;3.63;3.13;;;16.50;1.00;;;;;;5024507;28;20471;-88
2022/10/07 11:43:24;;;;;;;3.83;3.30;;;16.70;99.90;;;;;;5025862;28;20436;-88
2022/10/07 11:45:55;;;;;;;5.27;3.70;;;16.50;1.00;;;;;;5026240;28;20510;-87
2022/10/07 11:48:26;;;;;;;5.83;3.53;;;16.60;1.00;;;;;;5025417;28;20438;-88
2022/10/07 11:50:58;;;;;;;4.60;3.00;;;16.50;51.70;;;;;;5027112;28;20468;-87
2022/10/07 11:53:27;;;;;;;6.60;3.20;;;16.80;1.00;;;;;;5026634;28;20539;-87
2022/10/07 11:55:59;;;;;;;4.40;3.00;;;16.80;1.00;;;;;;5027676;28;20494;-87
2022/10/07 11:58:31;;;;;;;3.70;3.20;;;16.80;1.00;;;;;;5027841;28;20436;-87
2022/10/07 12:01:39;;;;;;;4.17;3.00;;;16.90;1.00;;;;;;5028920;28;20486;-87
2022/10/07 12:04:24;;;;;;;9.27;3.93;;;16.90;1.00;;;;;;5029369;28;20435;-87
2022/10/07 12:07:28;;;;;;;6.20;3.60;;;16.90;1.00;;;;;;5031388;28;20424;-87
2022/10/07 12:10:17;;;;;;;6.20;4.03;;;16.80;1.00;;;;;;5031224;28;20413;-87
2022/10/07 12:12:50;;;;;;;6.50;3.80;;;16.80;1.00;;;;;;5029682;28;20471;-87
2022/10/07 12:15:31;;;;;;;6.60;3.93;;;16.90;1.00;;;;;;5025917;28;20471;-88
2022/10/07 12:18:27;;;;;;;5.37;2.93;;;16.90;1.00;;;;;;5026036;28;20490;-86
2022/10/07 12:21:00;;;;;;;5.80;2.73;;;17.00;1.00;;;;;;5047363;22;20486;-81
2022/10/07 12:23:45;;;;;;;5.40;3.37;;;16.90;1.00;;;;;;5020140;28;20454;-81
2022/10/07 12:26:49;;;;;;;8.87;3.13;;;16.80;1.00;;;;;;5017214;28;20494;-80
2022/10/07 12:29:50;;;;;;;7.60;3.60;;;16.90;1.00;;;;;;5017421;28;20438;-81
2022/10/07 12:32:55;;;;;;;3.57;3.10;;;17.00;1.00;;;;;;5016281;28;20490;-81
2022/10/07 12:35:43;;;;;;;5.00;3.27;;;17.00;1.00;;;;;;5015912;28;20529;-81
2022/10/07 12:38:18;;;;;;;4.53;3.30;;;17.00;1.00;;;;;;5016251;28;20476;-81
2022/10/07 12:40:49;;;;;;;4.30;2.97;;;17.10;1.00;;;;;;5016448;28;20871;-81
2022/10/07 12:43:27;;;;;;;4.93;3.23;;;17.10;1.00;;;;;;5016075;28;20451;-81
2022/10/07 12:45:55;;;;;;;3.80;3.17;;;17.10;1.00;;;;;;5017059;28;20419;-81
2022/10/07 12:48:24;;;;;;;3.90;3.00;;;17.00;1.00;;;;;;5016265;28;20462;-81
2022/10/07 12:50:56;;;;;;;5.07;3.23;;;17.00;1.00;;;;;;5016405;28;20510;-81
2022/10/07 12:53:26;;;;;;;4.70;3.40;;;17.20;1.00;;;;;;5016077;28;20467;-81
2022/10/07 12:55:55;;;;;;;5.57;3.03;;;17.10;1.00;;;;;;5016236;28;20471;-81
2022/10/07 13:01:46;;;;;;;12.10;4.50;;;17.30;1.00;;;;;;5025479;28;20582;-80
2022/10/07 13:04:42;;;;;;;11.00;6.27;;;17.30;1.00;;;;;;5024165;28;20428;-80
2022/10/07 13:07:47;;;;;;;7.67;5.80;;;17.20;1.00;;;;;;5017924;28;20501;-81
2022/10/07 13:10:37;;;;;;;9.80;3.93;;;17.10;1.00;;;;;;5022136;28;20440;-80
2022/10/07 13:13:08;;;;;;;4.10;3.70;;;17.10;1.00;;;;;;5020061;28;20427;-81
2022/10/07 13:15:42;;;;;;;2.93;2.50;;;17.10;1.00;;;;;;5020242;28;20471;-81
2022/10/07 13:18:19;;;;;;;5.77;4.47;;;17.10;1.00;;;;;;5020326;28;20442;-81
2022/10/07 13:21:01;;;;;;;6.27;3.20;;;17.00;1.00;;;;;;5027070;28;20479;-81
2022/10/07 13:23:31;;;;;;;10.30;3.10;;;17.00;1.00;;;;;;5026923;28;20435;-82
2022/10/07 13:26:00;;;;;;;5.83;2.77;;;17.10;1.00;;;;;;5021883;28;20896;-81
2022/10/07 13:28:35;;;;;;;6.83;3.77;;;17.10;1.00;;;;;;5021071;28;20501;-82
2022/10/07 13:31:17;;;;;;;10.67;3.50;;;17.20;1.00;;;;;;5020756;28;20874;-82